createdAt,value
2023-04-03T00:02:12.231Z,4.43
2023-04-03T00:04:39.545Z,4.10
2023-04-03T00:07:06.707Z,4.30
2023-04-03T00:09:33.811Z,4.50
2023-04-03T00:12:01.145Z,4.23
2023-04-03T00:14:28.601Z,4.70
2023-04-03T00:16:55.782Z,4.40
2023-04-03T00:19:22.945Z,5.17
2023-04-03T00:21:50.022Z,4.70
2023-04-03T00:24:17.139Z,4.87
2023-04-03T00:26:44.273Z,4.70
2023-04-03T00:29:11.430Z,5.00
2023-04-03T00:31:38.539Z,4.60
2023-04-03T00:34:05.714Z,4.30
2023-04-03T00:36:32.898Z,4.63
2023-04-03T00:39:00.191Z,5.00
2023-04-03T00:41:27.375Z,4.63
2023-04-03T00:43:54.488Z,4.63
2023-04-03T00:46:21.675Z,4.10
2023-04-03T00:48:49.583Z,4.30
2023-04-03T00:51:22.006Z,4.10
2023-04-03T00:53:52.124Z,4.00
2023-04-03T00:56:22.656Z,4.00
2023-04-03T00:58:54.740Z,4.10
2023-04-03T01:01:24.461Z,3.80
2023-04-03T01:03:52.195Z,3.90
2023-04-03T01:06:22.942Z,3.67
2023-04-03T01:08:51.497Z,3.40
2023-04-03T01:11:18.646Z,3.60
2023-04-03T01:13:46.059Z,3.77
2023-04-03T01:16:13.237Z,3.50
2023-04-03T01:18:41.311Z,3.50
2023-04-03T01:21:14.230Z,3.53
2023-04-03T01:23:47.855Z,3.73
2023-04-03T01:26:15.043Z,3.10
2023-04-03T01:28:42.143Z,4.07
2023-04-03T01:31:16.243Z,3.43
2023-04-03T01:33:44.136Z,3.47
2023-04-03T01:36:12.047Z,3.60
2023-04-03T01:38:39.236Z,3.67
2023-04-03T01:41:06.420Z,3.40
2023-04-03T01:43:33.521Z,3.37
2023-04-03T01:46:00.690Z,3.37
2023-04-03T01:48:27.855Z,3.83
2023-04-03T01:50:55.533Z,3.80
2023-04-03T01:53:22.639Z,3.43
2023-04-03T01:55:50.115Z,3.20
2023-04-03T01:58:17.388Z,3.50
2023-04-03T02:00:44.548Z,3.50
2023-04-03T02:03:11.708Z,3.67
2023-04-03T02:05:39.335Z,3.73
2023-04-03T02:08:06.913Z,3.07
2023-04-03T02:10:34.209Z,3.37
2023-04-03T02:13:01.403Z,3.80
2023-04-03T02:15:28.498Z,3.20
2023-04-03T02:17:55.661Z,3.50
2023-04-03T02:20:23.090Z,3.30
2023-04-03T02:22:50.360Z,3.20
2023-04-03T02:25:18.735Z,3.17
2023-04-03T02:27:45.973Z,3.60
2023-04-03T02:30:13.766Z,3.13
2023-04-03T02:32:41.824Z,3.43
2023-04-03T02:35:09.085Z,3.47
2023-04-03T02:37:36.582Z,3.13
2023-04-03T02:40:04.619Z,3.07
2023-04-03T02:42:31.747Z,3.50
2023-04-03T02:45:00.465Z,3.27
2023-04-03T02:47:28.424Z,3.40
2023-04-03T02:49:55.549Z,3.60
2023-04-03T02:52:22.763Z,3.63
2023-04-03T02:54:49.916Z,3.77
2023-04-03T02:57:17.066Z,3.63
2023-04-03T02:59:45.189Z,3.90
2023-04-03T03:02:12.518Z,3.73
2023-04-03T03:04:39.784Z,3.73
2023-04-03T03:07:07.059Z,3.93
2023-04-03T03:09:34.191Z,3.90
2023-04-03T03:12:01.652Z,4.00
2023-04-03T03:14:28.763Z,3.90
2023-04-03T03:16:55.903Z,3.90
2023-04-03T03:19:22.999Z,3.90
2023-04-03T03:21:50.121Z,4.10
2023-04-03T03:24:17.315Z,3.97
2023-04-03T03:26:44.906Z,4.07
2023-04-03T03:29:12.101Z,4.07
2023-04-03T03:31:39.253Z,4.47
2023-04-03T03:34:06.475Z,4.13
2023-04-03T03:36:37.124Z,3.77
2023-04-03T03:39:04.284Z,4.10
2023-04-03T03:41:32.041Z,4.23
2023-04-03T03:43:59.243Z,4.13
2023-04-03T03:46:26.390Z,4.30
2023-04-03T03:48:53.610Z,4.00
2023-04-03T03:51:20.913Z,4.00
2023-04-03T03:53:48.042Z,3.47
2023-04-03T03:56:15.387Z,3.90
2023-04-03T03:58:42.555Z,4.27
2023-04-03T04:01:09.710Z,3.13
2023-04-03T04:03:36.977Z,3.43
2023-04-03T04:06:04.337Z,3.40
2023-04-03T04:08:31.618Z,3.60
2023-04-03T04:10:58.779Z,3.30
2023-04-03T04:13:25.895Z,3.50
2023-04-03T04:15:53.064Z,3.10
2023-04-03T04:18:22.213Z,3.30
2023-04-03T04:20:49.341Z,3.37
2023-04-03T04:23:16.596Z,3.10
2023-04-03T04:25:45.974Z,3.50
2023-04-03T04:28:13.249Z,3.20
2023-04-03T04:30:40.805Z,3.17
2023-04-03T04:33:08.091Z,3.00
2023-04-03T04:35:35.609Z,3.53
2023-04-03T04:38:03.427Z,3.07
2023-04-03T04:40:30.938Z,3.00
2023-04-03T04:42:58.079Z,3.40
2023-04-03T04:45:25.281Z,3.40
2023-04-03T04:47:53.714Z,3.33
2023-04-03T04:50:20.948Z,3.40
2023-04-03T04:52:48.078Z,3.30
2023-04-03T04:55:15.557Z,3.20
2023-04-03T04:57:42.657Z,4.07
2023-04-03T05:00:10.060Z,3.30
2023-04-03T05:02:37.218Z,3.47
2023-04-03T05:05:05.346Z,3.27
2023-04-03T05:07:32.778Z,3.73
2023-04-03T05:09:59.920Z,3.40
2023-04-03T05:12:27.162Z,3.20
2023-04-03T05:14:54.281Z,3.53
2023-04-03T05:17:21.514Z,3.07
2023-04-03T05:19:48.748Z,3.13
2023-04-03T05:22:16.140Z,3.40
2023-04-03T05:24:43.257Z,2.80
2023-04-03T05:27:10.419Z,2.90
2023-04-03T05:29:37.536Z,3.30
2023-04-03T05:32:04.750Z,3.37
2023-04-03T05:34:32.405Z,3.23
2023-04-03T05:36:59.490Z,3.40
2023-04-03T05:39:26.599Z,3.70
2023-04-03T05:41:53.774Z,3.70
2023-04-03T05:44:20.884Z,2.97
2023-04-03T05:46:48.333Z,2.97
2023-04-03T05:49:15.613Z,2.40
2023-04-03T05:51:42.854Z,2.63
2023-04-03T05:54:12.815Z,2.10
2023-04-03T05:56:39.967Z,2.40
2023-04-03T05:59:08.291Z,2.00
2023-04-03T06:01:35.445Z,2.13
2023-04-03T06:04:02.727Z,2.03
2023-04-03T06:06:49.597Z,2.57
2023-04-03T06:09:17.824Z,2.00
2023-04-03T06:11:45.130Z,1.97
2023-04-03T06:14:12.695Z,2.30
2023-04-03T06:16:40.340Z,2.13
2023-04-03T06:19:08.459Z,2.10
2023-04-03T06:21:36.740Z,2.23
2023-04-03T06:24:05.298Z,1.80
2023-04-03T06:26:32.458Z,1.90
2023-04-03T06:28:59.632Z,2.10
2023-04-03T06:31:26.827Z,1.87
2023-04-03T06:33:53.995Z,1.90
2023-04-03T06:36:22.025Z,2.07
2023-04-03T06:38:49.567Z,2.17
2023-04-03T06:41:18.206Z,2.70
2023-04-03T06:43:46.000Z,2.30
2023-04-03T06:46:17.596Z,2.50
2023-04-03T06:48:44.786Z,2.40
2023-04-03T06:51:32.263Z,2.00
2023-04-03T06:54:00.536Z,2.53
2023-04-03T06:56:27.778Z,2.25
2023-04-03T06:58:58.069Z,2.10
2023-04-03T07:01:27.274Z,1.92
2023-04-03T07:03:54.517Z,2.08
2023-04-03T07:06:21.617Z,2.10
2023-04-03T07:08:50.040Z,2.50
2023-04-03T07:11:17.266Z,1.70
2023-04-03T07:13:44.520Z,2.30
2023-04-03T07:16:12.027Z,2.10
2023-04-03T07:18:39.287Z,2.17
2023-04-03T07:21:07.116Z,2.22
2023-04-03T07:23:34.753Z,2.00
2023-04-03T07:26:02.307Z,2.05
2023-04-03T07:28:30.701Z,2.13
2023-04-03T07:31:05.078Z,2.20
2023-04-03T07:33:32.395Z,1.90
2023-04-03T07:36:00.029Z,2.10
2023-04-03T07:38:27.488Z,2.20
2023-04-03T07:40:54.693Z,2.22
2023-04-03T07:43:23.211Z,2.20
2023-04-03T07:45:51.912Z,2.17
2023-04-03T07:48:20.067Z,1.95
2023-04-03T07:50:47.306Z,2.00
2023-04-03T07:53:15.054Z,2.10
2023-04-03T07:55:45.479Z,2.58
2023-04-03T07:58:13.927Z,2.20
2023-04-03T08:00:41.089Z,2.17
2023-04-03T08:03:10.423Z,1.90
2023-04-03T08:05:42.585Z,2.17
2023-04-03T08:08:10.807Z,2.50
2023-04-03T08:10:37.979Z,2.50
2023-04-03T08:13:05.615Z,2.47
2023-04-03T08:15:32.975Z,2.10
2023-04-03T08:18:00.551Z,2.10
2023-04-03T08:20:28.342Z,2.17
2023-04-03T08:22:55.835Z,2.10
2023-04-03T08:25:22.963Z,2.17
2023-04-03T08:27:50.112Z,2.03
2023-04-03T08:30:17.631Z,2.30
2023-04-03T08:32:45.493Z,2.22
2023-04-03T08:35:12.788Z,2.00
2023-04-03T08:37:40.192Z,2.63
2023-04-03T08:40:12.062Z,2.50
2023-04-03T08:42:48.386Z,2.80
2023-04-03T08:45:22.327Z,2.47
2023-04-03T08:48:08.747Z,2.03
2023-04-03T08:50:39.654Z,2.20
2023-04-03T08:53:07.985Z,2.42
2023-04-03T08:55:36.876Z,2.40
2023-04-03T08:58:08.837Z,2.35
2023-04-03T09:00:47.133Z,2.22
2023-04-03T09:03:15.747Z,2.40
2023-04-03T09:05:48.632Z,2.28
2023-04-03T09:08:31.235Z,2.38
2023-04-03T09:11:17.237Z,2.20
2023-04-03T09:13:47.987Z,1.63
2023-04-03T09:16:40.855Z,1.90
2023-04-03T09:19:16.942Z,1.90
2023-04-03T09:21:44.545Z,1.93
2023-04-03T09:24:13.903Z,2.07
2023-04-03T09:26:47.122Z,1.93
2023-04-03T09:29:22.361Z,1.90
2023-04-03T09:31:57.264Z,2.03
2023-04-03T09:34:27.457Z,1.60
2023-04-03T09:36:55.690Z,1.67
2023-04-03T09:39:25.177Z,2.00
2023-04-03T09:42:01.561Z,2.10
2023-04-03T09:44:31.306Z,2.33
2023-04-03T09:46:58.954Z,1.63
2023-04-03T09:49:26.571Z,1.90
2023-04-03T09:51:54.720Z,2.13
2023-04-03T09:54:39.514Z,2.03
2023-04-03T09:57:12.736Z,2.20
2023-04-03T09:59:46.243Z,1.90
2023-04-03T10:02:13.590Z,1.60
2023-04-03T10:04:41.962Z,1.80
2023-04-03T10:07:54.761Z,2.10
2023-04-03T10:10:28.992Z,1.90
2023-04-03T10:13:06.803Z,1.93
2023-04-03T10:15:42.334Z,1.80
2023-04-03T10:18:26.963Z,1.70
2023-04-03T10:20:56.194Z,1.80
2023-04-03T10:23:42.318Z,1.67
2023-04-03T10:26:18.317Z,2.07
2023-04-03T10:29:17.772Z,1.80
2023-04-03T10:31:53.479Z,1.73
2023-04-03T10:34:58.473Z,1.70
2023-04-03T10:37:37.743Z,2.73
2023-04-03T10:40:24.366Z,2.47
2023-04-03T10:42:51.464Z,1.90
2023-04-03T10:45:29.732Z,1.70
2023-04-03T10:47:56.876Z,1.30
2023-04-03T10:50:42.871Z,1.20
2023-04-03T10:53:15.897Z,1.53
2023-04-03T10:55:48.986Z,1.50
2023-04-03T10:58:22.117Z,1.60
2023-04-03T11:00:50.604Z,1.60
2023-04-03T11:03:23.164Z,1.70
2023-04-03T11:05:54.623Z,1.43
2023-04-03T11:08:31.453Z,1.80
2023-04-03T11:11:01.528Z,1.80
2023-04-03T11:13:40.864Z,1.70
2023-04-03T11:16:09.504Z,1.90
2023-04-03T11:18:45.996Z,1.83
2023-04-03T11:21:17.941Z,1.70
2023-04-03T11:23:49.911Z,1.80
2023-04-03T11:26:22.023Z,1.50
2023-04-03T11:28:53.681Z,1.80
2023-04-03T11:31:28.488Z,1.40
2023-04-03T11:34:09.738Z,1.60
2023-04-03T11:37:02.633Z,1.47
2023-04-03T11:39:35.715Z,1.50
2023-04-03T11:42:21.365Z,1.50
2023-04-03T11:44:48.555Z,1.60
2023-04-03T11:47:36.759Z,1.67
2023-04-03T11:50:07.598Z,1.43
2023-04-03T11:52:43.836Z,1.50
2023-04-03T11:55:31.624Z,1.37
2023-04-03T11:58:01.988Z,1.70
2023-04-03T12:00:47.453Z,1.63
2023-04-03T12:03:27.156Z,1.70
2023-04-03T12:05:55.702Z,2.00
2023-04-03T12:08:46.156Z,1.80
2023-04-03T12:11:13.327Z,1.60
2023-04-03T12:13:43.554Z,1.43
2023-04-03T12:16:37.009Z,1.40
2023-04-03T12:19:16.933Z,1.20
2023-04-03T12:21:49.796Z,1.70
2023-04-03T12:24:16.928Z,1.50
2023-04-03T12:26:59.314Z,1.50
2023-04-03T12:29:35.155Z,1.87
2023-04-03T12:32:05.417Z,1.30
2023-04-03T12:34:45.085Z,1.40
2023-04-03T12:37:21.146Z,1.60
2023-04-03T12:40:04.896Z,1.37
2023-04-03T12:42:42.561Z,1.30
2023-04-03T12:45:22.882Z,1.50
2023-04-03T12:47:51.197Z,1.43
2023-04-03T12:50:22.414Z,1.30
2023-04-03T12:52:52.839Z,1.50
2023-04-03T12:55:22.713Z,1.50
2023-04-03T12:57:50.082Z,1.70
2023-04-03T13:00:33.685Z,1.70
2023-04-03T13:03:01.830Z,1.70
2023-04-03T13:05:29.849Z,1.63
2023-04-03T13:08:06.016Z,1.83
2023-04-03T13:10:34.471Z,1.80
2023-04-03T13:13:08.671Z,1.40
2023-04-03T13:15:43.089Z,1.80
2023-04-03T13:18:28.494Z,1.57
2023-04-03T13:20:58.201Z,1.40
2023-04-03T13:23:25.895Z,1.60
2023-04-03T13:25:53.134Z,1.50
2023-04-03T13:28:25.125Z,1.50
2023-04-03T13:31:12.646Z,1.40
2023-04-03T13:33:39.893Z,1.70
2023-04-03T13:36:07.181Z,1.70
2023-04-03T13:38:35.103Z,1.53
2023-04-03T13:41:05.392Z,1.80
2023-04-03T13:43:34.642Z,1.85
2023-04-03T13:46:24.720Z,1.52
2023-04-03T13:48:53.094Z,1.60
2023-04-03T13:51:22.518Z,1.97
2023-04-03T13:54:00.480Z,1.90
2023-04-03T13:56:42.906Z,1.77
2023-04-03T13:59:13.046Z,1.60
2023-04-03T14:01:40.234Z,1.60
2023-04-03T14:04:18.751Z,1.70
2023-04-03T14:06:46.654Z,1.47
2023-04-03T14:09:14.166Z,1.60
2023-04-03T14:11:42.014Z,1.57
2023-04-03T14:14:35.818Z,1.80
2023-04-03T14:17:04.122Z,2.00
2023-04-03T14:19:32.929Z,2.22
2023-04-03T14:22:02.086Z,2.33
2023-04-03T14:24:29.205Z,1.60
2023-04-03T14:26:56.905Z,1.38
2023-04-03T14:29:24.440Z,1.70
2023-04-03T14:31:57.742Z,1.70
2023-04-03T14:34:28.385Z,1.70
2023-04-03T14:36:55.762Z,1.60
2023-04-03T14:39:22.889Z,1.50
2023-04-03T14:41:50.092Z,1.50
2023-04-03T14:44:17.509Z,1.43
2023-04-03T14:46:56.184Z,1.70
2023-04-03T14:49:27.125Z,1.43
2023-04-03T14:51:54.288Z,1.67
2023-04-03T14:54:26.407Z,1.53
2023-04-03T14:56:54.261Z,1.90
2023-04-03T14:59:22.509Z,2.10
2023-04-03T15:01:50.286Z,1.87
2023-04-03T15:04:18.544Z,1.87
2023-04-03T15:06:46.188Z,2.03
2023-04-03T15:09:24.736Z,1.57
2023-04-03T15:11:52.485Z,1.60
2023-04-03T15:14:29.919Z,1.40
2023-04-03T15:17:04.638Z,1.30
2023-04-03T15:19:34.275Z,1.60
2023-04-03T15:22:01.473Z,1.33
2023-04-03T15:24:28.606Z,1.37
2023-04-03T15:26:56.148Z,1.40
2023-04-03T15:29:23.303Z,1.50
2023-04-03T15:31:53.713Z,1.57
2023-04-03T15:34:22.826Z,1.60
2023-04-03T15:36:51.068Z,1.50
2023-04-03T15:39:18.387Z,1.50
2023-04-03T15:41:46.458Z,1.50
2023-04-03T15:44:14.058Z,1.60
2023-04-03T15:46:42.091Z,1.43
2023-04-03T15:49:09.272Z,1.60
2023-04-03T15:51:37.005Z,1.60
2023-04-03T15:54:04.182Z,1.50
2023-04-03T15:56:31.301Z,1.80
2023-04-03T15:58:58.469Z,1.60
2023-04-03T16:01:25.688Z,1.37
2023-04-03T16:03:53.044Z,1.60
2023-04-03T16:06:20.540Z,1.40
2023-04-03T16:08:49.605Z,1.80
2023-04-03T16:11:16.721Z,1.60
2023-04-03T16:13:43.862Z,1.70
2023-04-03T16:16:11.233Z,1.67
2023-04-03T16:18:38.468Z,1.60
2023-04-03T16:21:08.881Z,2.00
2023-04-03T16:23:36.361Z,1.90
2023-04-03T16:26:03.502Z,1.30
2023-04-03T16:28:30.672Z,1.50
2023-04-03T16:30:57.883Z,1.43
2023-04-03T16:33:25.917Z,1.67
2023-04-03T16:35:53.111Z,1.50
2023-04-03T16:38:20.508Z,2.07
2023-04-03T16:40:47.675Z,1.57
2023-04-03T16:43:14.767Z,1.90
2023-04-03T16:45:42.210Z,2.30
2023-04-03T16:48:09.928Z,1.90
2023-04-03T16:50:37.336Z,1.47
2023-04-03T16:53:04.584Z,1.73
2023-04-03T16:55:32.507Z,1.60
2023-04-03T16:57:59.662Z,1.73
2023-04-03T17:00:26.809Z,1.80
2023-04-03T17:02:53.988Z,2.03
2023-04-03T17:05:21.146Z,1.90
2023-04-03T17:07:48.280Z,1.83
2023-04-03T17:10:15.914Z,1.80
2023-04-03T17:12:43.017Z,1.57
2023-04-03T17:15:10.443Z,1.57
2023-04-03T17:17:37.977Z,1.30
2023-04-03T17:20:05.444Z,1.60
2023-04-03T17:22:33.215Z,1.50
2023-04-03T17:25:00.337Z,1.40
2023-04-03T17:27:27.550Z,1.60
2023-04-03T17:29:54.739Z,1.60
2023-04-03T17:32:21.992Z,1.40
2023-04-03T17:34:49.142Z,1.60
2023-04-03T17:37:16.362Z,1.60
2023-04-03T17:39:43.548Z,1.70
2023-04-03T17:42:10.716Z,1.97
2023-04-03T17:44:38.068Z,1.63
2023-04-03T17:47:05.340Z,1.43
2023-04-03T17:49:33.341Z,1.60
2023-04-03T17:52:00.452Z,1.60
2023-04-03T17:54:27.602Z,1.53
2023-04-03T17:56:55.385Z,1.10
2023-04-03T17:59:22.702Z,1.47
2023-04-03T18:01:51.205Z,1.03
2023-04-03T18:04:18.412Z,1.80
2023-04-03T18:06:47.031Z,1.43
2023-04-03T18:09:16.049Z,1.20
2023-04-03T18:11:44.149Z,1.30
2023-04-03T18:14:11.500Z,1.50
2023-04-03T18:16:38.721Z,1.60
2023-04-03T18:21:57.160Z,1.50
2023-04-03T18:24:24.984Z,1.50
2023-04-03T18:26:54.321Z,1.60
2023-04-03T18:29:21.831Z,1.57
2023-04-03T18:31:51.357Z,1.77
2023-04-03T18:34:18.501Z,1.60
2023-04-03T18:36:46.593Z,1.80
2023-04-03T18:39:13.926Z,1.73
2023-04-03T18:41:41.507Z,1.60
2023-04-03T18:44:11.039Z,1.53
2023-04-03T18:49:11.745Z,2.07
2023-04-03T18:51:42.071Z,1.70
2023-04-03T18:54:10.103Z,2.20
2023-04-03T18:56:37.608Z,2.50
2023-04-03T18:59:05.033Z,1.90
2023-04-03T19:01:32.613Z,1.60
2023-04-03T19:03:59.937Z,1.73
2023-04-03T19:06:27.254Z,1.70
2023-04-03T19:08:54.487Z,1.47
2023-04-03T19:11:21.688Z,1.80
2023-04-03T19:14:04.539Z,1.60
2023-04-03T19:16:35.912Z,1.90
2023-04-03T19:19:03.084Z,1.80
2023-04-03T19:21:30.242Z,2.00
2023-04-03T19:23:59.339Z,1.97
2023-04-03T19:26:27.390Z,1.70
2023-04-03T19:28:54.615Z,1.90
2023-04-03T19:31:23.196Z,1.80
2023-04-03T19:33:50.919Z,1.70
2023-04-03T19:36:18.502Z,1.67
2023-04-03T19:38:46.076Z,1.80
2023-04-03T19:41:15.392Z,2.10
2023-04-03T19:43:42.627Z,1.90
2023-04-03T19:46:10.320Z,2.20
2023-04-03T19:48:37.513Z,2.47
2023-04-03T19:51:06.166Z,2.07
2023-04-03T19:53:33.360Z,2.10
2023-04-03T19:56:01.124Z,2.20
2023-04-03T19:58:29.746Z,1.80
2023-04-03T20:00:57.353Z,2.33
2023-04-03T20:03:24.828Z,2.00
2023-04-03T20:05:52.100Z,2.10
2023-04-03T20:08:19.519Z,2.10
2023-04-03T20:10:47.009Z,1.80
2023-04-03T20:13:14.589Z,1.90
2023-04-03T20:15:43.881Z,2.27
2023-04-03T20:18:12.588Z,1.93
2023-04-03T20:20:42.168Z,2.00
2023-04-03T20:23:11.203Z,2.20
2023-04-03T20:25:54.063Z,2.30
2023-04-03T20:28:29.009Z,2.10
2023-04-03T20:30:56.849Z,2.33
2023-04-03T20:33:26.254Z,2.57
2023-04-03T20:35:54.336Z,1.97
2023-04-03T20:38:22.283Z,2.50
2023-04-03T20:40:49.923Z,2.00
2023-04-03T20:43:17.248Z,2.00
2023-04-03T20:45:44.358Z,2.10
2023-04-03T20:48:13.155Z,2.00
2023-04-03T20:50:41.235Z,2.37
2023-04-03T20:53:09.036Z,2.40
2023-04-03T20:55:36.339Z,1.97
2023-04-03T20:58:03.634Z,2.10
2023-04-03T21:00:34.482Z,2.00
2023-04-03T21:03:01.710Z,2.53
2023-04-03T21:05:30.401Z,1.90
2023-04-03T21:08:16.416Z,2.27
2023-04-03T21:11:02.788Z,2.30
2023-04-03T21:13:48.696Z,2.07
2023-04-03T21:16:15.864Z,2.77
2023-04-03T21:19:02.040Z,3.30
2023-04-03T21:21:29.404Z,6.30
2023-04-03T21:23:56.740Z,5.67
2023-04-03T21:26:26.262Z,4.17
2023-04-03T21:28:53.448Z,3.17
2023-04-03T21:31:23.750Z,2.50
2023-04-03T21:33:53.664Z,2.87
2023-04-03T21:36:20.793Z,2.70
2023-04-03T21:38:48.165Z,2.60
2023-04-03T21:41:15.537Z,2.80
2023-04-03T21:43:42.690Z,2.63
2023-04-03T21:46:09.799Z,2.77
2023-04-03T21:48:37.571Z,3.10
2023-04-03T21:51:05.521Z,2.93
2023-04-03T21:53:34.310Z,2.77
2023-04-03T21:56:02.448Z,2.80
2023-04-03T21:58:33.391Z,2.70
2023-04-03T22:01:11.388Z,2.57
2023-04-03T22:03:39.006Z,2.50
2023-04-03T22:06:06.155Z,2.50
2023-04-03T22:08:33.732Z,2.70
2023-04-03T22:11:04.416Z,2.50
2023-04-03T22:13:31.652Z,2.70
2023-04-03T22:15:59.468Z,2.70
2023-04-03T22:18:27.206Z,2.50
2023-04-03T22:20:55.063Z,3.00
2023-04-03T22:23:22.606Z,2.63
2023-04-03T22:25:59.397Z,3.20
2023-04-03T22:28:29.774Z,3.20
2023-04-03T22:30:57.159Z,3.03
2023-04-03T22:33:24.421Z,2.77
2023-04-03T22:35:51.748Z,3.53
2023-04-03T22:38:19.269Z,3.67
2023-04-03T22:40:46.446Z,3.60
2023-04-03T22:43:13.591Z,3.63
2023-04-03T22:45:50.385Z,4.43
2023-04-03T22:48:17.708Z,4.40
2023-04-03T22:50:44.908Z,4.50
2023-04-03T22:53:11.991Z,4.13
2023-04-03T22:55:39.086Z,3.50
2023-04-03T22:58:06.615Z,3.27
2023-04-03T23:00:33.801Z,3.20
2023-04-03T23:03:01.570Z,3.17
2023-04-03T23:05:29.306Z,3.03
2023-04-03T23:07:56.469Z,3.13
2023-04-03T23:10:23.766Z,3.10
2023-04-03T23:12:50.906Z,3.17
2023-04-03T23:15:19.482Z,3.47
2023-04-03T23:17:49.178Z,3.13
2023-04-03T23:20:16.663Z,2.90
2023-04-03T23:22:44.539Z,2.80
2023-04-03T23:25:12.305Z,2.63
2023-04-03T23:27:39.421Z,2.63
2023-04-03T23:30:07.439Z,2.77
2023-04-03T23:32:34.607Z,2.40
2023-04-03T23:35:01.764Z,2.70
2023-04-03T23:37:28.861Z,2.40
2023-04-03T23:39:56.090Z,2.40
2023-04-03T23:42:23.237Z,2.43
2023-04-03T23:44:50.363Z,2.50
2023-04-03T23:47:17.475Z,2.63
2023-04-03T23:49:44.620Z,2.63
2023-04-03T23:52:12.221Z,2.40
2023-04-03T23:54:39.435Z,2.20
2023-04-03T23:57:06.815Z,2.43
2023-04-03T23:59:33.897Z,2.13
